Willits, CA (95490)

5:41 AM PDT on September 20, 2014 (GMT -0700)
Mendocino College Willits | Change Station
CLOSE
Current Station
Personal Weather Station
Location: Willits, CA
Elevation: 1355 ft
Nearby Weather Stations

Elev 1355 ft 39.41 °N, 123.35 °W | Updated 1 minute ago

Partly Cloudy
Partly Cloudy
51.4 °F
Feels Like 51.4 °F
N
0.0
Wind Variable Wind from SE
Gusts 0.0 mph

Today
High -- | Low -- °F
--% Chance of Precip.
Yesterday
High -- | Low -- °F
Precip. -- in
6:59 AM 7:13 PM
Waning Crescent, 12% visible
Pressure 29.89 in
Visibility 0.5 miles
Clouds
Dew Point 50 °F
Humidity 94%
Rainfall 0.00 in
Snow Depth 0 in , 0 in , 0 in
UV Not available.
Pollen 6.00 out of 12
Air Quality Not available.
Flu Activity Not available.
SPECI KUKI 201235Z AUTO 00000KT 1/2SM FG VV001 14/13 A2989 RMK AO2 T01390128

More Conditions Fewer Conditions

Pressure 29.89 in
Visibility 0.5 miles
Clouds
Dew Point 50 °F
Humidity 94%
Rainfall 0.00 in
Snow Depth 0 in , 0 in , 0 in
UV Not available.
Pollen 6.00 out of 12
Air Quality Not available.
Flu Activity Not available.
SPECI KUKI 201235Z AUTO 00000KT 1/2SM FG VV001 14/13 A2989 RMK AO2 T01390128

More Conditions Fewer Conditions

10-Day Weather Forecast

Almanac

Astronomy

Sep. 20, 2014 Rise Set
Actual Time 6:59 AM PDT 7:13 PM PDT
Civil Twilight 6:32 AM PDT 7:40 PM PDT
Nautical Twilight 6:01 AM PDT 8:11 PM PDT
Astronomical Twilight 5:28 AM PDT 8:43 PM PDT
Moon 3:44 AM PDT 5:19 PM PDT
Length of Visible Light 13h 07m
Length of Day
12h 14m
Tomorrow will be 2m 32s shorter.
Waning Crescent, 12% of the Moon is Illuminated
Today
Waning Crescent
Sep 24
New
Oct 1
First Quarter
Oct 8
Full
Oct 15
Last Quarter

Today's Extremes

State Highs State Lows

Community

WunderPhotos

Upload Photos

1,754,837 photos uploaded!

Nearby

Snow Depth

Station Depth Elevation
Fallen Leaf 0 in 6300 ft
Burnside Lake 0 in 8139 ft
Summit Meadow 1 in 9122 ft
Blue Lakes 0 in 8000 ft
CSS Lab 3 in 6900 ft

Earthquake Activity

City Distance Mag. Time & Date
Livermore, California 148 miles 2.6 3:37 AM PDT
2014-09-19
The Geysers, California 56 miles 2.5 11:29 PM PDT
2014-09-17
Minimum magnitude displayed is 2.5.

Coastal Water Temperatures

Place Temperature
Arena Cove, CA 62.1 °F
North Spit, CA 61.0 °F
Point Reyes, CA 66.0 °F
San Francisco, CA 66.0 °F
Richmond, CA 68.0 °F

Nearby Weather Stations